Time;durP1;ratioP1;P1;durP2;ratioP2;P2;SDS_P1;SDS_P2;PMS_P1;PMS_P2;Temp;Humidity;BMP_temperature;BMP_pressure;BME280_temperature;BME280_humidity;BME280_pressure;Samples;Min_cycle;Max_cycle;Signal;HPM_P1;HPM_P2
2021/11/15 00:01:18;;;;;;;32.03;25.35;;;;;;;9.81;100.00;102567.09;5235102;28;20025;-69
2021/11/15 00:03:50;;;;;;;32.28;26.58;;;;;;;9.78;100.00;102565.50;5237730;28;20037;-69
2021/11/15 00:06:21;;;;;;;35.22;26.60;;;;;;;9.76;100.00;102559.50;5236745;28;20131;-69
2021/11/15 00:08:52;;;;;;;33.50;25.95;;;;;;;9.73;100.00;102563.13;5236676;28;20044;-69
2021/11/15 00:11:26;;;;;;;35.40;24.85;;;;;;;9.78;100.00;102562.06;5237654;28;20045;-69
2021/11/15 00:13:57;;;;;;;30.88;24.02;;;;;;;9.72;100.00;102557.97;5236638;28;20433;-69
2021/11/15 00:16:29;;;;;;;30.58;23.63;;;;;;;9.75;100.00;102553.41;5231626;28;20021;-69
2021/11/15 00:19:01;;;;;;;29.85;24.13;;;;;;;9.75;100.00;102555.19;5236512;28;20024;-69
2021/11/15 00:21:33;;;;;;;31.08;23.65;;;;;;;9.73;100.00;102559.66;5237810;28;20032;-69
2021/11/15 00:24:04;;;;;;;30.83;24.88;;;;;;;9.78;100.00;102556.81;5236988;28;20033;-69
2021/11/15 00:26:36;;;;;;;31.23;23.75;;;;;;;9.68;100.00;102559.06;5235934;28;20033;-69
2021/11/15 00:29:07;;;;;;;31.75;24.55;;;;;;;9.72;100.00;102565.81;5236008;28;20025;-69
2021/11/15 00:31:38;;;;;;;29.00;23.15;;;;;;;9.72;100.00;102556.19;5236753;28;20112;-69
2021/11/15 00:34:10;;;;;;;31.95;24.60;;;;;;;9.69;100.00;102553.75;5237826;28;20021;-69
2021/11/15 00:36:41;;;;;;;26.48;22.25;;;;;;;9.66;100.00;102546.06;5238713;28;20041;-69
2021/11/15 00:39:13;;;;;;;28.73;22.55;;;;;;;9.67;100.00;102557.38;5236526;28;20024;-69
2021/11/15 00:41:44;;;;;;;29.83;22.83;;;;;;;9.65;100.00;102552.22;5236711;28;20018;-69
2021/11/15 00:44:16;;;;;;;28.38;22.42;;;;;;;9.62;100.00;102548.91;5237668;28;20029;-69
2021/11/15 00:46:47;;;;;;;27.58;22.75;;;;;;;9.60;100.00;102545.56;5238153;28;20558;-69
2021/11/15 00:49:18;;;;;;;27.70;22.98;;;;;;;9.61;100.00;102550.69;5236002;28;20475;-69
2021/11/15 00:51:50;;;;;;;26.90;21.90;;;;;;;9.59;100.00;102552.56;5236446;28;20930;-69
2021/11/15 00:54:21;;;;;;;30.33;22.25;;;;;;;9.59;100.00;102555.19;5236339;28;20050;-69
2021/11/15 00:56:52;;;;;;;26.35;21.63;;;;;;;9.61;100.00;102552.47;5236497;28;20112;-69
2021/11/15 00:59:24;;;;;;;25.15;20.92;;;;;;;9.59;100.00;102549.09;5237283;28;20033;-69
2021/11/15 01:01:56;;;;;;;24.90;20.00;;;;;;;9.57;100.00;102554.41;5234300;28;20037;-69
2021/11/15 01:04:27;;;;;;;26.70;20.63;;;;;;;9.50;100.00;102546.03;5235597;28;20038;-69
2021/11/15 01:06:58;;;;;;;25.00;20.90;;;;;;;9.55;100.00;102560.66;5237312;28;20459;-69
2021/11/15 01:09:30;;;;;;;22.90;19.23;;;;;;;9.54;100.00;102557.19;5237560;28;20479;-69
2021/11/15 01:12:01;;;;;;;24.95;19.63;;;;;;;9.56;100.00;102560.56;5237232;28;20021;-69
2021/11/15 01:14:33;;;;;;;25.10;19.88;;;;;;;9.56;100.00;102559.72;5236239;28;20037;-69
2021/11/15 01:17:04;;;;;;;23.10;19.27;;;;;;;9.52;100.00;102555.59;5236951;28;20069;-69
2021/11/15 01:19:35;;;;;;;27.77;20.40;;;;;;;9.54;100.00;102565.03;5215967;28;20021;-69
2021/11/15 01:22:07;;;;;;;26.58;21.73;;;;;;;9.43;100.00;102562.13;5238444;28;20025;-69
2021/11/15 01:24:39;;;;;;;23.50;19.45;;;;;;;9.36;100.00;102555.56;5240569;28;20557;-69
2021/11/15 01:27:10;;;;;;;25.20;20.48;;;;;;;9.38;100.00;102562.38;5240331;28;20041;-69
2021/11/15 01:29:42;;;;;;;24.48;19.85;;;;;;;9.33;100.00;102553.94;5240773;28;20040;-69
2021/11/15 01:32:13;;;;;;;23.65;19.80;;;;;;;9.37;100.00;102565.09;5240482;28;20029;-69
2021/11/15 01:34:45;;;;;;;25.33;18.80;;;;;;;9.37;100.00;102554.63;5240409;28;20054;-69
2021/11/15 01:37:16;;;;;;;23.70;19.00;;;;;;;9.42;100.00;102563.06;5240124;28;20029;-69
2021/11/15 01:39:47;;;;;;;22.52;18.23;;;;;;;9.42;100.00;102565.69;5240743;28;20021;-68
2021/11/15 01:42:19;;;;;;;25.20;20.40;;;;;;;9.34;100.00;102560.00;5240152;28;20029;-69
2021/11/15 01:44:50;;;;;;;24.67;20.77;;;;;;;9.33;100.00;102561.78;5240021;28;20462;-69
2021/11/15 01:47:22;;;;;;;26.13;20.80;;;;;;;9.33;100.00;102559.16;5239921;28;20032;-69
2021/11/15 01:49:54;;;;;;;26.23;21.25;;;;;;;9.31;100.00;102560.16;5238272;28;20372;-69
2021/11/15 01:52:26;;;;;;;24.70;20.65;;;;;;;9.29;100.00;102565.47;5221753;28;20029;-69
2021/11/15 01:54:57;;;;;;;25.10;20.67;;;;;;;9.25;100.00;102553.50;5237727;28;20048;-69
2021/11/15 01:57:28;;;;;;;23.15;18.88;;;;;;;9.24;100.00;102568.34;5240630;28;20053;-69
2021/11/15 02:00:00;;;;;;;24.33;19.58;;;;;;;9.22;100.00;102557.09;5222887;28;20304;-69
2021/11/15 02:02:32;;;;;;;30.33;19.85;;;;;;;9.19;100.00;102554.63;5239830;28;20075;-69
2021/11/15 02:05:03;;;;;;;24.25;19.80;;;;;;;9.10;100.00;102547.28;5238752;28;20075;-69
2021/11/15 02:07:35;;;;;;;23.70;19.75;;;;;;;9.19;100.00;102548.56;5241034;28;20037;-69
2021/11/15 02:10:09;;;;;;;26.05;20.02;;;;;;;9.21;100.00;102539.72;5237863;28;20036;-69
2021/11/15 02:12:41;;;;;;;24.35;19.35;;;;;;;9.16;100.00;102535.66;5238191;28;20475;-69
2021/11/15 02:15:14;;;;;;;24.17;19.23;;;;;;;9.20;100.00;102542.41;5239462;28;20027;-69
2021/11/15 02:17:48;;;;;;;21.70;18.58;;;;;;;9.22;100.00;102524.88;5238542;28;20102;-69
2021/11/15 02:20:21;;;;;;;22.63;19.00;;;;;;;9.01;100.00;102525.03;5237534;28;20017;-69
2021/11/15 02:22:53;;;;;;;;;;;;;;;9.50;100.00;102525.09;5239054;28;20394;-69
2021/11/15 02:25:26;;;;;;;25.10;19.80;;;;;;;9.14;100.00;102527.91;5238526;28;19947;-69
2021/11/15 02:27:57;;;;;;;23.92;19.63;;;;;;;9.11;100.00;102517.59;5238529;28;20052;-69
2021/11/15 02:30:28;;;;;;;26.42;20.20;;;;;;;9.14;100.00;102519.22;5236920;28;20641;-69
2021/11/15 02:33:01;;;;;;;23.67;19.40;;;;;;;9.11;100.00;102516.75;5239231;28;20399;-68
2021/11/15 02:35:32;;;;;;;23.07;19.67;;;;;;;9.13;100.00;102518.38;5238566;28;20033;-69
2021/11/15 02:38:04;;;;;;;26.75;20.80;;;;;;;9.05;100.00;102525.72;5240737;28;20032;-69
2021/11/15 02:40:36;;;;;;;23.85;19.33;;;;;;;9.06;100.00;102521.38;5241665;28;20021;-69
2021/11/15 02:43:07;;;;;;;24.20;19.35;;;;;;;9.08;100.00;102527.34;5238559;28;20086;-69
2021/11/15 02:45:39;;;;;;;23.35;19.00;;;;;;;9.00;100.00;102510.28;5238989;28;20020;-69
2021/11/15 02:48:10;;;;;;;25.75;20.92;;;;;;;8.82;100.00;102524.28;5237620;28;20024;-69
2021/11/15 02:50:42;;;;;;;24.55;19.60;;;;;;;8.92;100.00;102514.22;5240088;28;20435;-69
2021/11/15 02:53:14;;;;;;;25.02;21.27;;;;;;;8.84;100.00;102524.25;5237238;28;20068;-69
2021/11/15 02:55:46;;;;;;;24.48;19.65;;;;;;;8.90;100.00;102521.28;5237686;28;20026;-69
2021/11/15 02:58:17;;;;;;;25.23;20.38;;;;;;;8.87;100.00;102522.31;5240068;28;20021;-69
2021/11/15 03:01:14;;;;;;;26.42;21.40;;;;;;;8.87;100.00;102531.94;5238075;28;20472;-68
2021/11/15 03:03:46;;;;;;;24.58;19.90;;;;;;;8.85;100.00;102526.75;5238350;28;20028;-68
2021/11/15 03:06:17;;;;;;;26.35;21.38;;;;;;;8.88;100.00;102524.00;5235961;28;20493;-68
2021/11/15 03:08:49;;;;;;;24.83;21.15;;;;;;;8.87;100.00;102529.31;5239234;28;20461;-68
2021/11/15 03:11:21;;;;;;;26.93;20.83;;;;;;;8.85;100.00;102521.53;5236704;28;20026;-68
2021/11/15 03:13:52;;;;;;;25.17;20.73;;;;;;;8.80;100.00;102528.78;5238376;28;20029;-68
2021/11/15 03:16:23;;;;;;;26.13;20.80;;;;;;;8.86;100.00;102527.59;5238060;28;20033;-68
2021/11/15 03:18:55;;;;;;;28.75;21.50;;;;;;;8.85;100.00;102532.00;5237285;28;20434;-68
2021/11/15 03:21:26;;;;;;;29.45;22.80;;;;;;;8.87;100.00;102526.69;5238276;28;20030;-68
2021/11/15 03:23:57;;;;;;;28.30;22.42;;;;;;;8.87;100.00;102527.53;5236740;28;20296;-68
2021/11/15 03:26:29;;;;;;;29.85;23.70;;;;;;;8.89;100.00;102517.84;5237640;28;20021;-68
2021/11/15 03:29:01;;;;;;;30.50;25.13;;;;;;;8.92;100.00;102528.16;5238293;28;20107;-68
2021/11/15 03:31:34;;;;;;;27.58;23.05;;;;;;;8.93;100.00;102528.97;5237457;28;20416;-68
2021/11/15 03:34:13;;;;;;;29.50;23.83;;;;;;;9.00;100.00;102530.38;5237869;28;20096;-68
2021/11/15 03:36:45;;;;;;;28.83;23.58;;;;;;;8.89;100.00;102525.69;5237355;28;20459;-68
2021/11/15 03:39:17;;;;;;;27.40;23.60;;;;;;;8.92;100.00;102527.31;5236777;28;20036;-68
2021/11/15 03:41:48;;;;;;;30.00;24.25;;;;;;;8.81;100.00;102525.22;5238466;28;20402;-68
2021/11/15 03:44:20;;;;;;;30.30;25.08;;;;;;;8.81;100.00;102529.63;5237251;28;20035;-68
2021/11/15 03:46:51;;;;;;;30.20;24.58;;;;;;;8.81;100.00;102527.84;5238040;28;20041;-68
2021/11/15 03:49:23;;;;;;;30.55;24.20;;;;;;;8.82;100.00;102526.91;5235857;28;20039;-68
2021/11/15 03:51:54;;;;;;;29.67;23.30;;;;;;;8.77;100.00;102521.91;5237314;28;20037;-68
2021/11/15 03:54:25;;;;;;;28.42;22.92;;;;;;;8.78;100.00;102525.38;5236260;28;20041;-68
2021/11/15 03:56:57;;;;;;;29.20;24.17;;;;;;;8.76;100.00;102525.47;5238809;28;20044;-68
2021/11/15 03:59:28;;;;;;;30.38;24.17;;;;;;;8.78;100.00;102533.22;5236767;28;20029;-68
2021/11/15 04:01:59;;;;;;;27.88;22.48;;;;;;;8.76;100.00;102525.47;5218974;28;20048;-68
2021/11/15 04:04:39;;;;;;;27.23;22.25;;;;;;;8.77;100.00;102531.53;5234850;28;20033;-68
2021/11/15 04:07:11;;;;;;;28.98;23.20;;;;;;;8.72;100.00;102536.16;5237833;28;20025;-68
2021/11/15 04:09:42;;;;;;;28.97;22.27;;;;;;;8.71;100.00;102530.09;5238216;28;20475;-68
2021/11/15 04:12:14;;;;;;;27.65;22.40;;;;;;;8.70;100.00;102540.59;5234646;28;20025;-68
2021/11/15 04:14:46;;;;;;;28.52;23.20;;;;;;;8.70;100.00;102545.81;5238664;28;20064;-68
2021/11/15 04:17:18;;;;;;;27.52;22.65;;;;;;;8.70;100.00;102541.44;5237568;28;20024;-68
2021/11/15 04:19:52;;;;;;;26.83;21.90;;;;;;;8.73;100.00;102550.91;5238225;28;20055;-68
2021/11/15 04:22:23;;;;;;;29.45;23.73;;;;;;;8.72;100.00;102544.00;5237905;28;20037;-68
2021/11/15 04:24:54;;;;;;;29.15;23.75;;;;;;;8.73;100.00;102545.69;5236365;28;20033;-67
2021/11/15 04:27:26;;;;;;;29.05;23.88;;;;;;;8.72;100.00;102546.59;5237779;28;20029;-68
2021/11/15 04:29:57;;;;;;;27.98;24.25;;;;;;;8.68;100.00;102547.69;5236375;28;20026;-68
2021/11/15 04:32:28;;;;;;;28.88;23.63;;;;;;;8.70;100.00;102551.03;5236954;28;20060;-68
2021/11/15 04:35:00;;;;;;;27.92;23.05;;;;;;;8.69;100.00;102544.13;5237322;28;20025;-68
2021/11/15 04:37:31;;;;;;;29.75;23.88;;;;;;;8.67;100.00;102548.59;5236180;28;20406;-68
2021/11/15 04:40:04;;;;;;;28.60;23.90;;;;;;;8.67;100.00;102551.19;5236693;28;20055;-68
2021/11/15 04:42:36;;;;;;;28.17;23.38;;;;;;;8.68;100.00;102548.53;5236082;28;20034;-68
2021/11/15 04:45:08;;;;;;;28.77;23.63;;;;;;;8.64;100.00;102543.53;5235771;28;20585;-68
2021/11/15 04:47:39;;;;;;;26.45;21.50;;;;;;;8.63;100.00;102542.66;5237726;28;20053;-68
2021/11/15 04:50:11;;;;;;;28.52;23.77;;;;;;;8.62;100.00;102540.13;5235912;28;20037;-68
2021/11/15 04:52:43;;;;;;;26.92;22.83;;;;;;;8.60;100.00;102544.56;5237542;28;20053;-68
2021/11/15 04:55:17;;;;;;;29.95;24.38;;;;;;;8.66;100.00;102539.91;5237482;28;20021;-68
2021/11/15 04:57:49;;;;;;;26.98;22.63;;;;;;;8.65;100.00;102545.22;5239786;28;20025;-68
2021/11/15 05:00:25;;;;;;;28.58;23.02;;;;;;;8.66;100.00;102544.28;5239184;28;20021;-68
2021/11/15 05:02:56;;;;;;;30.73;22.90;;;;;;;8.55;100.00;102541.34;5240918;28;20022;-68
2021/11/15 05:05:28;;;;;;;29.10;23.70;;;;;;;8.57;100.00;102545.59;5239186;28;20486;-68
2021/11/15 05:08:00;;;;;;;26.60;22.27;;;;;;;8.57;100.00;102542.13;5238725;28;20021;-68
2021/11/15 05:10:31;;;;;;;28.30;22.60;;;;;;;8.50;100.00;102537.19;5239233;28;20718;-68
2021/11/15 05:13:02;;;;;;;28.15;22.90;;;;;;;8.55;100.00;102539.59;5239802;28;20555;-68
2021/11/15 05:15:34;;;;;;;27.23;22.30;;;;;;;8.61;100.00;102543.69;5241350;28;20033;-68
2021/11/15 05:18:05;;;;;;;26.25;22.38;;;;;;;8.56;100.00;102537.81;5221316;28;20017;-69
2021/11/15 05:20:37;;;;;;;26.40;22.58;;;;;;;8.55;100.00;102544.81;5238611;28;20025;-68
2021/11/15 05:23:08;;;;;;;27.48;22.77;;;;;;;8.53;100.00;102531.84;5240568;28;20025;-68
2021/11/15 05:25:40;;;;;;;27.00;21.90;;;;;;;8.52;100.00;102539.72;5241091;28;20029;-68
2021/11/15 05:28:11;;;;;;;28.38;22.05;;;;;;;8.50;100.00;102552.03;5240633;28;20021;-68
2021/11/15 05:30:42;;;;;;;27.33;23.25;;;;;;;8.50;100.00;102542.44;5240297;28;20029;-68
2021/11/15 05:33:14;;;;;;;27.65;22.40;;;;;;;8.50;100.00;102544.19;5241394;28;20017;-68
2021/11/15 05:35:45;;;;;;;27.63;22.92;;;;;;;8.45;100.00;102551.44;5239152;28;20033;-68
2021/11/15 05:38:17;;;;;;;28.83;22.92;;;;;;;8.47;100.00;102553.03;5240112;28;20033;-68
2021/11/15 05:40:48;;;;;;;28.48;23.08;;;;;;;8.49;100.00;102556.41;5240732;28;20144;-68
2021/11/15 05:43:19;;;;;;;28.65;23.58;;;;;;;8.47;100.00;102552.19;5240951;28;20037;-68
2021/11/15 05:45:52;;;;;;;28.92;22.95;;;;;;;8.49;100.00;102559.03;5241607;28;20032;-68
2021/11/15 05:48:23;;;;;;;28.50;23.30;;;;;;;8.48;100.00;102554.69;5238892;28;20037;-68
2021/11/15 05:50:54;;;;;;;29.88;23.92;;;;;;;8.43;100.00;102550.63;5239377;28;20022;-68
2021/11/15 05:53:25;;;;;;;29.50;24.80;;;;;;;8.47;100.00;102550.41;5239070;28;20462;-68
2021/11/15 05:55:57;;;;;;;30.95;24.83;;;;;;;8.44;100.00;102547.94;5237861;28;20124;-68
2021/11/15 05:58:28;;;;;;;28.73;23.58;;;;;;;8.44;100.00;102550.56;5238763;28;20037;-68
2021/11/15 06:01:00;;;;;;;29.52;23.77;;;;;;;8.47;100.00;102546.97;5240016;28;20079;-68
2021/11/15 06:03:31;;;;;;;28.75;24.17;;;;;;;8.48;100.00;102541.63;5232342;28;20037;-68
2021/11/15 06:06:02;;;;;;;30.20;24.50;;;;;;;8.46;100.00;102538.28;5237590;28;20029;-68
2021/11/15 06:08:34;;;;;;;29.77;24.73;;;;;;;8.43;100.00;102540.19;5238099;28;20486;-68
2021/11/15 06:11:05;;;;;;;31.63;24.52;;;;;;;8.39;100.00;102534.28;5239810;28;20025;-68
2021/11/15 06:13:37;;;;;;;31.38;25.33;;;;;;;8.41;100.00;102534.19;5237989;28;20021;-68
2021/11/15 06:16:08;;;;;;;29.33;24.40;;;;;;;8.47;100.00;102533.91;5239581;28;20033;-68
2021/11/15 06:18:41;;;;;;;32.40;25.63;;;;;;;8.44;100.00;102539.25;5238730;28;20513;-68
2021/11/15 06:21:12;;;;;;;31.17;24.93;;;;;;;8.40;100.00;102527.28;5239383;28;20032;-68
2021/11/15 06:23:43;;;;;;;29.60;24.35;;;;;;;8.39;100.00;102539.50;5241266;28;20510;-68
2021/11/15 06:26:15;;;;;;;30.48;24.83;;;;;;;8.41;100.00;102536.78;5239321;28;20052;-67
2021/11/15 06:28:48;;;;;;;30.80;24.85;;;;;;;8.42;100.00;102544.56;5238623;28;20029;-67
2021/11/15 06:31:19;;;;;;;;;;;;;;;8.97;100.00;102539.19;5240031;28;20471;-68
2021/11/15 06:33:52;;;;;;;26.93;23.23;;;;;;;8.48;100.00;102549.47;5240481;28;19927;-67
2021/11/15 06:36:25;;;;;;;27.43;23.27;;;;;;;8.53;100.00;102557.13;5239046;28;20034;-68
2021/11/15 06:38:58;;;;;;;28.98;23.40;;;;;;;8.62;100.00;102555.81;5241304;28;20333;-68
2021/11/15 06:41:30;;;;;;;30.98;24.40;;;;;;;8.59;100.00;102566.41;5238775;28;20017;-68
2021/11/15 06:44:02;;;;;;;31.20;24.42;;;;;;;8.60;100.00;102562.88;5240967;28;20030;-68
2021/11/15 06:46:34;;;;;;;32.35;24.52;;;;;;;8.59;100.00;102559.41;5243614;28;20029;-68
2021/11/15 06:49:05;;;;;;;31.85;25.40;;;;;;;8.59;100.00;102569.84;5245620;28;20043;-68
2021/11/15 06:51:38;;;;;;;31.90;25.73;;;;;;;8.43;100.00;102564.53;5245968;28;20433;-68
2021/11/15 06:54:10;;;;;;;36.03;26.38;;;;;;;8.38;100.00;102566.53;5245170;28;20049;-68
2021/11/15 06:56:41;;;;;;;32.65;24.63;;;;;;;8.31;100.00;102559.03;5245360;28;20048;-68
2021/11/15 06:59:13;;;;;;;35.42;26.70;;;;;;;8.31;100.00;102565.09;5244740;28;20452;-68
2021/11/15 07:01:44;;;;;;;34.90;26.70;;;;;;;8.36;100.00;102570.94;5245520;28;20391;-68
2021/11/15 07:04:16;;;;;;;34.40;26.00;;;;;;;8.40;100.00;102569.06;5243905;28;20036;-68
2021/11/15 07:06:47;;;;;;;36.13;26.95;;;;;;;8.40;100.00;102574.28;5244868;28;20060;-68
2021/11/15 07:09:18;;;;;;;34.50;26.15;;;;;;;8.43;100.00;102571.53;5240161;28;20487;-68
2021/11/15 07:11:50;;;;;;;35.28;26.70;;;;;;;8.43;100.00;102576.75;5239674;28;20029;-67
2021/11/15 07:14:21;;;;;;;33.47;25.98;;;;;;;8.39;100.00;102576.06;5237282;28;20494;-68
2021/11/15 07:16:54;;;;;;;34.03;26.80;;;;;;;8.41;100.00;102578.59;5229233;28;20245;-68
2021/11/15 07:19:25;;;;;;;36.20;26.75;;;;;;;8.37;100.00;102577.00;5234936;28;20030;-68
2021/11/15 07:21:57;;;;;;;33.78;26.92;;;;;;;8.33;100.00;102576.31;5236286;28;20014;-69
2021/11/15 07:24:28;;;;;;;36.17;27.42;;;;;;;8.33;100.00;102578.06;5235130;28;20025;-69
2021/11/15 07:27:00;;;;;;;33.95;26.88;;;;;;;8.35;100.00;102579.69;5235866;28;20043;-68
2021/11/15 07:29:31;;;;;;;36.67;28.13;;;;;;;8.32;100.00;102589.44;5237872;28;20040;-68
2021/11/15 07:32:08;;;;;;;34.60;26.67;;;;;;;8.29;100.00;102585.22;5238644;28;20029;-69
2021/11/15 07:34:40;;;;;;;34.67;26.77;;;;;;;8.25;100.00;102578.44;5236686;28;20121;-69
2021/11/15 07:37:12;;;;;;;34.72;26.25;;;;;;;8.26;100.00;102585.38;5237738;28;20036;-69
2021/11/15 07:39:43;;;;;;;35.05;26.45;;;;;;;8.24;100.00;102584.59;5238680;28;20079;-68
2021/11/15 07:42:17;;;;;;;37.92;27.75;;;;;;;8.17;100.00;102580.56;5239097;28;20056;-68
2021/11/15 07:44:48;;;;;;;36.13;27.02;;;;;;;8.13;100.00;102574.63;5236657;28;20037;-68
2021/11/15 07:47:20;;;;;;;38.05;27.88;;;;;;;8.21;100.00;102579.50;5235600;28;20026;-68
2021/11/15 07:49:51;;;;;;;37.67;27.02;;;;;;;8.22;100.00;102584.66;5234316;28;20072;-68
2021/11/15 07:52:22;;;;;;;38.72;27.95;;;;;;;8.27;100.00;102579.22;5237287;28;20045;-69
2021/11/15 07:54:54;;;;;;;37.33;26.70;;;;;;;8.32;100.00;102586.84;5234020;28;20557;-68
2021/11/15 07:57:25;;;;;;;36.88;26.98;;;;;;;8.34;100.00;102580.63;5236176;28;20031;-68
2021/11/15 07:59:56;;;;;;;35.95;27.23;;;;;;;8.35;100.00;102586.69;5237484;28;20020;-68
2021/11/15 08:02:27;;;;;;;34.28;25.17;;;;;;;8.38;100.00;102589.19;5236236;28;20036;-69
2021/11/15 08:04:59;;;;;;;37.03;27.50;;;;;;;8.35;100.00;102592.75;5236257;28;20506;-68
2021/11/15 08:07:30;;;;;;;36.95;26.33;;;;;;;8.46;100.00;102592.28;5236861;28;20475;-69
2021/11/15 08:10:08;;;;;;;37.20;27.52;;;;;;;8.52;100.00;102597.19;5235723;28;20426;-68
2021/11/15 08:12:42;;;;;;;34.28;26.65;;;;;;;8.45;100.00;102595.81;5234827;28;20122;-69
2021/11/15 08:15:16;;;;;;;35.00;26.45;;;;;;;8.37;100.00;102598.81;5237466;28;20028;-69
2021/11/15 08:17:50;;;;;;;34.58;26.95;;;;;;;8.39;100.00;102591.72;5235293;28;20048;-68
2021/11/15 08:20:30;;;;;;;34.40;26.48;;;;;;;8.43;100.00;102582.81;5236110;28;20033;-68
2021/11/15 08:23:12;;;;;;;33.25;25.40;;;;;;;8.38;100.00;102587.44;5236294;28;20033;-68
2021/11/15 08:26:12;;;;;;;34.83;25.88;;;;;;;8.55;100.00;102584.00;5235608;28;20036;-68
2021/11/15 08:28:44;;;;;;;34.08;26.13;;;;;;;8.31;100.00;102580.78;5236300;28;20132;-68
2021/11/15 08:31:15;;;;;;;34.47;25.77;;;;;;;8.33;100.00;102578.06;5235683;28;20564;-68
2021/11/15 08:33:47;;;;;;;37.75;28.17;;;;;;;8.31;100.00;102570.31;5240997;28;20091;-68
2021/11/15 08:36:18;;;;;;;37.40;27.00;;;;;;;8.34;100.00;102574.56;5241920;28;20030;-68
2021/11/15 08:39:03;;;;;;;36.58;26.15;;;;;;;8.38;100.00;102578.75;5241221;28;20032;-68
2021/11/15 08:41:38;;;;;;;38.95;26.40;;;;;;;8.38;100.00;102579.59;5239938;28;20099;-68
2021/11/15 08:44:10;;;;;;;36.38;26.55;;;;;;;8.31;100.00;102575.53;5240554;28;20026;-68
2021/11/15 08:46:44;;;;;;;36.70;27.02;;;;;;;8.37;100.00;102570.06;5240118;28;20037;-68
2021/11/15 08:49:17;;;;;;;;;;;;;;;8.90;100.00;102573.56;5242785;28;20029;-68
2021/11/15 08:51:49;;;;;;;35.97;26.75;;;;;;;8.44;100.00;102583.66;5242316;28;19928;-68
2021/11/15 08:54:22;;;;;;;37.65;26.92;;;;;;;8.41;100.00;102586.41;5242499;28;20312;-69
2021/11/15 08:57:03;;;;;;;36.80;27.42;;;;;;;8.55;100.00;102581.38;5241175;28;20029;-68
2021/11/15 08:59:34;;;;;;;39.53;28.08;;;;;;;8.45;100.00;102580.16;5242049;28;20033;-69
2021/11/15 09:02:05;;;;;;;34.53;26.15;;;;;;;8.43;100.00;102588.03;5239789;28;20021;-68
2021/11/15 09:04:37;;;;;;;37.05;26.60;;;;;;;8.36;100.00;102573.56;5241073;28;20048;-68
2021/11/15 09:07:09;;;;;;;33.17;25.85;;;;;;;8.30;100.00;102581.69;5242754;28;20446;-68
2021/11/15 09:09:40;;;;;;;37.47;28.52;;;;;;;8.28;100.00;102581.75;5241979;28;20033;-68
2021/11/15 09:12:12;;;;;;;36.08;26.58;;;;;;;8.28;100.00;102597.41;5237379;28;20112;-68
2021/11/15 09:14:43;;;;;;;37.08;26.45;;;;;;;8.29;100.00;102593.88;5241147;28;20226;-69
2021/11/15 09:17:14;;;;;;;33.15;25.55;;;;;;;8.28;100.00;102593.97;5240390;28;20021;-68
2021/11/15 09:19:46;;;;;;;33.95;25.60;;;;;;;8.32;100.00;102595.50;5240111;28;20036;-69
2021/11/15 09:22:17;;;;;;;37.17;26.83;;;;;;;8.37;100.00;102597.91;5240468;28;20065;-68
2021/11/15 09:24:50;;;;;;;34.72;27.25;;;;;;;8.28;100.00;102586.13;5239812;28;20021;-68
2021/11/15 09:27:21;;;;;;;34.00;27.00;;;;;;;8.22;100.00;102566.41;5241420;28;20021;-68
2021/11/15 09:29:55;;;;;;;34.70;26.33;;;;;;;8.31;100.00;102579.94;5242173;28;20372;-68
2021/11/15 09:32:26;;;;;;;36.60;27.67;;;;;;;8.27;100.00;102577.47;5244205;28;20380;-68
2021/11/15 09:34:58;;;;;;;34.75;27.83;;;;;;;8.26;100.00;102573.16;5241926;28;20032;-68
2021/11/15 09:37:29;;;;;;;35.35;28.00;;;;;;;8.23;100.00;102580.28;5242485;28;20029;-68
2021/11/15 09:40:02;;;;;;;35.60;28.23;;;;;;;8.22;100.00;102579.44;5241650;28;20049;-68
2021/11/15 09:42:35;;;;;;;35.90;27.20;;;;;;;8.26;100.00;102582.75;5240620;28;20624;-68
2021/11/15 09:45:07;;;;;;;34.75;26.80;;;;;;;8.25;100.00;102588.88;5241504;28;20413;-68
2021/11/15 09:47:40;;;;;;;35.47;27.00;;;;;;;8.25;100.00;102584.50;5245409;28;20029;-68
2021/11/15 09:50:15;;;;;;;34.37;27.67;;;;;;;8.32;100.00;102584.22;5240127;28;20040;-68
2021/11/15 09:52:46;;;;;;;33.15;26.80;;;;;;;8.28;100.00;102583.53;5242821;28;20303;-68
2021/11/15 09:55:18;;;;;;;34.25;27.17;;;;;;;8.23;100.00;102588.13;5241713;28;20033;-68
2021/11/15 09:57:50;;;;;;;38.03;27.67;;;;;;;8.23;100.00;102585.50;5242181;28;20087;-68
2021/11/15 10:00:23;;;;;;;36.08;27.65;;;;;;;8.25;100.00;102587.13;5241578;28;20037;-68
2021/11/15 10:02:56;;;;;;;32.38;26.73;;;;;;;8.28;100.00;102581.75;5242498;28;20029;-68
2021/11/15 10:05:28;;;;;;;37.08;28.35;;;;;;;8.36;100.00;102580.53;5242461;28;20032;-68
2021/11/15 10:08:05;;;;;;;36.83;27.92;;;;;;;8.32;100.00;102572.00;5241084;28;20224;-68
2021/11/15 10:10:44;;;;;;;36.40;27.13;;;;;;;8.41;100.00;102581.19;5240010;28;20029;-68
2021/11/15 10:13:29;;;;;;;35.90;27.10;;;;;;;8.49;100.00;102585.16;5241966;28;20410;-68
2021/11/15 10:16:12;;;;;;;34.50;26.08;;;;;;;8.52;100.00;102587.63;5243153;28;20028;-68
2021/11/15 10:18:51;;;;;;;34.83;27.10;;;;;;;8.47;100.00;102579.13;5239570;28;20057;-68
2021/11/15 10:21:40;;;;;;;34.03;26.70;;;;;;;8.44;100.00;102579.28;5239812;28;20695;-68
2021/11/15 10:24:18;;;;;;;38.55;27.55;;;;;;;8.43;100.00;102581.97;5237600;28;20380;-68
2021/11/15 10:26:56;;;;;;;36.50;28.20;;;;;;;8.45;100.00;102577.53;5240620;28;20052;-68
2021/11/15 10:29:36;;;;;;;38.22;28.60;;;;;;;8.44;100.00;102570.59;5237698;28;20033;-68
2021/11/15 10:32:13;;;;;;;37.67;27.08;;;;;;;8.38;100.00;102563.94;5237678;28;20548;-68
2021/11/15 10:34:46;;;;;;;37.90;28.42;;;;;;;8.32;100.00;102563.34;5238775;28;20407;-68
2021/11/15 10:37:23;;;;;;;39.92;27.80;;;;;;;8.34;100.00;102564.13;5237872;28;20455;-69
2021/11/15 10:40:06;;;;;;;38.83;28.23;;;;;;;8.37;100.00;102556.13;5238413;28;20782;-68
2021/11/15 10:42:41;;;;;;;35.67;25.98;;;;;;;8.29;100.00;102554.72;5240910;28;20418;-68
2021/11/15 10:45:16;;;;;;;36.28;25.77;;;;;;;8.32;100.00;102548.50;5237706;28;20463;-68
2021/11/15 10:47:59;;;;;;;35.33;25.10;;;;;;;8.38;100.00;102556.09;5236706;28;20030;-68
2021/11/15 10:50:44;;;;;;;37.13;25.53;;;;;;;8.39;100.00;102549.94;5237313;28;20041;-68
2021/11/15 10:53:36;;;;;;;38.65;26.52;;;;;;;8.31;100.00;102541.59;5241821;28;20045;-68
2021/11/15 10:56:19;;;;;;;36.88;26.35;;;;;;;8.21;100.00;102543.78;5237557;28;20086;-68
2021/11/15 10:58:50;;;;;;;40.95;28.30;;;;;;;8.27;100.00;102550.50;5238953;28;20419;-68
2021/11/15 11:01:30;;;;;;;36.15;25.48;;;;;;;8.38;100.00;102560.47;5236225;28;20507;-68
2021/11/15 11:04:10;;;;;;;38.80;25.15;;;;;;;8.25;100.00;102561.00;5237930;28;20388;-68
2021/11/15 11:07:02;;;;;;;40.20;26.95;;;;;;;8.37;100.00;102561.34;5238240;28;20139;-68
2021/11/15 11:09:38;;;;;;;36.05;25.75;;;;;;;8.30;100.00;102555.59;5236387;28;20029;-68
2021/11/15 11:12:24;;;;;;;37.30;25.58;;;;;;;8.22;100.00;102560.31;5237525;28;20152;-68
2021/11/15 11:15:26;;;;;;;34.55;24.52;;;;;;;8.42;100.00;102565.47;5236202;28;20041;-68
2021/11/15 11:18:20;;;;;;;35.20;24.35;;;;;;;8.44;100.00;102557.53;5237943;28;20029;-68
2021/11/15 11:26:18;;;;;;;32.13;22.85;;;;;;;8.25;100.00;102553.16;5239920;28;20030;-68
2021/11/15 11:28:57;;;;;;;32.55;21.55;;;;;;;8.15;100.00;102540.66;5241047;28;20056;-69
2021/11/15 11:31:32;;;;;;;32.80;21.45;;;;;;;8.12;100.00;102531.19;5238155;28;20037;-69
2021/11/15 11:34:03;;;;;;;28.50;20.58;;;;;;;8.13;100.00;102529.41;5238434;28;20249;-68
2021/11/15 11:36:36;;;;;;;28.33;19.77;;;;;;;8.06;100.00;102531.47;5235516;28;20463;-69
2021/11/15 11:39:10;;;;;;;29.02;20.20;;;;;;;8.17;100.00;102530.97;5239856;28;20029;-68
2021/11/15 11:41:53;;;;;;;28.67;19.73;;;;;;;8.11;100.00;102536.50;5239199;28;20537;-68